Time;durP1;ratioP1;P1;durP2;ratioP2;P2;SDS_P1;SDS_P2;PMS_P1;PMS_P2;Temp;Humidity;BMP_temperature;BMP_pressure;BME280_temperature;BME280_humidity;BME280_pressure;Samples;Min_cycle;Max_cycle;Signal;HPM_P1;HPM_P2
2022/04/17 00:00:12;;;;;;;8.85;4.85;;;3.70;93.60;;;;;;5108768;28;20043;-48
2022/04/17 00:02:38;;;;;;;9.20;4.20;;;3.70;93.70;;;;;;5108663;28;20608;-46
2022/04/17 00:05:05;;;;;;;9.30;4.43;;;3.70;93.80;;;;;;5108341;28;20039;-49
2022/04/17 00:07:31;;;;;;;6.40;4.30;;;3.80;93.80;;;;;;5106791;28;20126;-46
2022/04/17 00:09:57;;;;;;;9.00;4.10;;;3.90;93.80;;;;;;5107872;28;20043;-48
2022/04/17 00:12:25;;;;;;;10.20;4.70;;;4.00;93.20;;;;;;5107687;28;20357;-47
2022/04/17 00:14:51;;;;;;;7.95;4.95;;;4.10;92.90;;;;;;5107484;28;20078;-47
2022/04/17 00:17:17;;;;;;;9.25;4.47;;;4.20;92.60;;;;;;5108152;28;20109;-46
2022/04/17 00:19:43;;;;;;;9.05;4.70;;;4.30;92.20;;;;;;5108844;28;20100;-48
2022/04/17 00:22:08;;;;;;;8.45;4.90;;;4.30;92.00;;;;;;5108517;28;20032;-47
2022/04/17 00:24:34;;;;;;;12.95;5.28;;;4.40;91.80;;;;;;5108670;28;20031;-48
2022/04/17 00:27:00;;;;;;;9.38;4.90;;;4.40;91.60;;;;;;5107672;28;20039;-47
2022/04/17 00:29:29;;;;;;;7.38;4.70;;;4.40;91.50;;;;;;5108744;28;20092;-47
2022/04/17 00:31:56;;;;;;;9.52;4.47;;;4.50;91.40;;;;;;5108630;28;20116;-47
2022/04/17 00:34:23;;;;;;;8.82;5.03;;;4.40;91.40;;;;;;5108212;28;20050;-48
2022/04/17 00:36:49;;;;;;;9.35;4.53;;;4.50;91.20;;;;;;5108428;28;20051;-47
2022/04/17 00:39:14;;;;;;;7.65;4.93;;;4.60;91.10;;;;;;5108163;28;20048;-47
2022/04/17 00:41:40;;;;;;;8.45;4.32;;;4.60;90.90;;;;;;5108256;28;20086;-47
2022/04/17 00:44:11;;;;;;;8.57;5.10;;;4.60;90.90;;;;;;5106399;28;20047;-47
2022/04/17 00:46:40;;;;;;;8.55;4.97;;;4.60;90.80;;;;;;5108237;28;20078;-46
2022/04/17 00:49:09;;;;;;;10.15;4.82;;;4.50;90.80;;;;;;5106738;28;20845;-47
2022/04/17 00:51:41;;;;;;;7.22;4.72;;;4.50;90.90;;;;;;5108222;28;20043;-47
2022/04/17 00:54:08;;;;;;;7.28;4.63;;;4.50;91.10;;;;;;5107773;28;20051;-50
2022/04/17 00:56:35;;;;;;;8.65;5.25;;;4.40;91.10;;;;;;5107897;28;20043;-47
2022/04/17 00:59:05;;;;;;;7.07;4.82;;;4.40;91.20;;;;;;5108151;28;20052;-48
2022/04/17 01:01:33;;;;;;;7.22;5.05;;;4.40;91.30;;;;;;5108233;28;20035;-47
2022/04/17 01:03:59;;;;;;;6.82;4.20;;;4.30;91.40;;;;;;5108323;28;20039;-46
2022/04/17 01:06:26;;;;;;;7.05;4.60;;;4.30;91.50;;;;;;5107587;28;20047;-47
2022/04/17 01:08:52;;;;;;;9.15;5.03;;;4.30;91.50;;;;;;5107838;28;20416;-47
2022/04/17 01:11:18;;;;;;;9.65;5.05;;;4.20;91.60;;;;;;5107941;28;20050;-47
2022/04/17 01:13:44;;;;;;;7.53;4.65;;;4.20;91.60;;;;;;5108018;28;20043;-50
2022/04/17 01:16:11;;;;;;;7.75;4.75;;;4.10;91.70;;;;;;5107785;28;20439;-49
2022/04/17 01:19:11;;;;;;;8.60;5.43;;;4.10;91.70;;;;;;5108288;28;20358;-48
2022/04/17 01:21:37;;;;;;;8.93;4.15;;;4.10;92.00;;;;;;5107744;28;20031;-47
2022/04/17 01:27:03;;;;;;;10.10;5.10;;;4.00;92.10;;;;;;5084055;28;20389;-46
2022/04/17 01:29:35;;;;;;;9.75;5.40;;;3.90;92.20;;;;;;5107873;28;20043;-49
2022/04/17 01:32:02;;;;;;;;;;;3.90;92.40;;;;;;5108524;28;20047;-47
2022/04/17 01:34:29;;;;;;;7.80;4.78;;;3.90;92.90;;;;;;5107615;28;19915;-49
2022/04/17 01:36:55;;;;;;;8.60;4.72;;;3.90;92.40;;;;;;5107573;28;20047;-47
2022/04/17 01:39:21;;;;;;;10.02;5.10;;;3.90;92.40;;;;;;5109520;28;20048;-47
2022/04/17 01:41:48;;;;;;;7.95;5.28;;;3.90;92.50;;;;;;5111591;28;20608;-47
2022/04/17 01:44:16;;;;;;;8.20;4.80;;;3.90;92.70;;;;;;5111238;28;20610;-46
2022/04/17 01:46:42;;;;;;;9.88;5.22;;;3.80;92.80;;;;;;5111227;28;20055;-46
2022/04/17 01:49:08;;;;;;;12.68;5.85;;;3.80;92.90;;;;;;5110940;28;20050;-47
2022/04/17 01:51:38;;;;;;;9.43;5.78;;;3.80;93.00;;;;;;5110341;27;20150;-46
2022/04/17 01:54:09;;;;;;;10.35;5.25;;;3.70;93.10;;;;;;5108740;28;20427;-47
2022/04/17 01:56:36;;;;;;;9.52;5.95;;;3.70;93.30;;;;;;5109932;28;20050;-47
2022/04/17 01:59:05;;;;;;;12.10;5.13;;;3.60;93.40;;;;;;5110364;28;20079;-45
2022/04/17 02:01:32;;;;;;;10.52;6.30;;;3.60;93.80;;;;;;5110038;28;20469;-48
2022/04/17 02:03:58;;;;;;;10.02;5.50;;;3.50;93.80;;;;;;5110621;28;20035;-47
2022/04/17 02:06:24;;;;;;;7.25;5.20;;;3.50;94.00;;;;;;5111041;28;20179;-50
2022/04/17 02:08:51;;;;;;;9.65;5.82;;;3.50;94.20;;;;;;5111229;28;20047;-47
2022/04/17 02:11:21;;;;;;;11.02;5.53;;;3.50;94.30;;;;;;5110804;28;20048;-47
2022/04/17 02:13:49;;;;;;;8.98;5.07;;;3.50;94.30;;;;;;5110499;27;20047;-47
2022/04/17 02:16:15;;;;;;;10.13;5.45;;;3.50;94.30;;;;;;5110630;28;20115;-51
2022/04/17 02:18:42;;;;;;;11.18;5.32;;;3.40;94.30;;;;;;5111309;28;20046;-48
2022/04/17 02:21:08;;;;;;;10.73;5.82;;;3.40;94.50;;;;;;5111117;28;20362;-47
2022/04/17 02:23:34;;;;;;;9.07;5.22;;;3.40;94.80;;;;;;5110997;28;20038;-47
2022/04/17 02:26:00;;;;;;;9.90;5.55;;;3.40;94.80;;;;;;5110931;28;20042;-49
2022/04/17 02:28:27;;;;;;;7.93;5.63;;;3.30;95.00;;;;;;5110744;28;20519;-46
2022/04/17 02:30:53;;;;;;;9.40;6.00;;;3.30;95.20;;;;;;5110904;28;20044;-47
2022/04/17 02:33:19;;;;;;;11.25;6.25;;;3.30;95.40;;;;;;5110766;28;20051;-47
2022/04/17 02:35:45;;;;;;;8.38;5.68;;;3.30;95.50;;;;;;5110543;27;20096;-46
2022/04/17 02:38:11;;;;;;;8.35;5.82;;;3.30;95.60;;;;;;5110007;28;20096;-48
2022/04/17 02:40:36;;;;;;;9.27;6.65;;;3.40;95.90;;;;;;5110631;28;20469;-48
2022/04/17 02:43:02;;;;;;;12.32;6.50;;;3.40;95.60;;;;;;5110875;28;20082;-48
2022/04/17 02:45:28;;;;;;;13.60;7.18;;;3.30;95.60;;;;;;5108960;28;20118;-48
2022/04/17 02:47:53;;;;;;;10.07;6.25;;;3.30;95.60;;;;;;5110667;28;20124;-47
2022/04/17 02:50:20;;;;;;;9.82;6.13;;;3.30;95.60;;;;;;5110066;28;20044;-48
2022/04/17 02:52:46;;;;;;;11.50;6.72;;;3.20;95.80;;;;;;5110717;28;20067;-47
2022/04/17 02:55:12;;;;;;;9.75;6.55;;;3.10;96.20;;;;;;5111086;28;20048;-50
2022/04/17 02:57:39;;;;;;;11.20;6.43;;;3.00;96.60;;;;;;5109712;28;20059;-47
2022/04/17 03:00:06;;;;;;;11.68;7.32;;;2.90;96.90;;;;;;5110295;28;20048;-49
2022/04/17 03:05:37;;;;;;;10.45;6.63;;;2.90;97.30;;;;;;5109896;28;20054;-46
2022/04/17 03:08:14;;;;;;;13.25;7.15;;;2.90;97.50;;;;;;5110079;28;20047;-48
2022/04/17 03:10:48;;;;;;;12.77;7.00;;;2.80;97.80;;;;;;5109889;28;20051;-48
2022/04/17 03:13:15;;;;;;;16.13;6.95;;;2.80;97.70;;;;;;5110312;28;20443;-48
2022/04/17 03:15:41;;;;;;;14.75;7.38;;;2.80;97.80;;;;;;5109534;28;20470;-48
2022/04/17 03:18:10;;;;;;;10.45;7.18;;;3.00;98.10;;;;;;5109600;28;20043;-48
2022/04/17 03:20:36;;;;;;;15.07;7.50;;;2.70;98.30;;;;;;5108193;28;20042;-50
2022/04/17 03:23:03;;;;;;;10.98;6.78;;;2.80;98.50;;;;;;5109774;28;20040;-48
2022/04/17 03:25:29;;;;;;;10.52;6.85;;;2.80;98.50;;;;;;5109596;28;20176;-49
2022/04/17 03:27:57;;;;;;;10.77;6.43;;;2.90;98.50;;;;;;5109725;28;20050;-46
2022/04/17 03:30:23;;;;;;;11.80;6.43;;;2.90;98.50;;;;;;5109164;28;20096;-48
2022/04/17 03:32:52;;;;;;;11.55;7.00;;;2.90;98.30;;;;;;5109449;28;20785;-47
2022/04/17 03:35:18;;;;;;;13.13;7.10;;;2.90;98.30;;;;;;5109812;28;20180;-49
2022/04/17 03:37:45;;;;;;;13.00;6.70;;;2.90;98.50;;;;;;5108810;28;20059;-47
2022/04/17 03:40:13;;;;;;;11.98;7.60;;;2.80;98.50;;;;;;5109528;28;20176;-47
2022/04/17 03:42:38;;;;;;;14.63;7.03;;;2.90;98.70;;;;;;5108833;28;20043;-47
2022/04/17 03:45:07;;;;;;;14.60;8.07;;;2.70;98.80;;;;;;5109094;28;20054;-47
2022/04/17 03:47:34;;;;;;;15.20;6.95;;;2.60;99.00;;;;;;5107843;28;20530;-46
2022/04/17 03:50:00;;;;;;;10.93;6.82;;;2.50;99.30;;;;;;5109278;28;20035;-50
2022/04/17 03:52:26;;;;;;;14.13;8.15;;;2.40;99.40;;;;;;5108794;28;20046;-48
2022/04/17 03:54:51;;;;;;;11.35;7.03;;;2.30;99.50;;;;;;5109257;28;20050;-50
2022/04/17 03:57:17;;;;;;;9.98;6.32;;;2.10;99.80;;;;;;5108585;28;20044;-48
2022/04/17 03:59:43;;;;;;;12.60;7.35;;;2.00;99.90;;;;;;5109120;28;20050;-49
2022/04/17 04:02:08;;;;;;;10.55;6.68;;;1.80;99.90;;;;;;5108299;28;20043;-51
2022/04/17 04:04:36;;;;;;;11.65;7.53;;;1.60;99.90;;;;;;5109015;28;20039;-51
2022/04/17 04:07:02;;;;;;;12.20;7.68;;;1.50;99.90;;;;;;5108448;28;20810;-46
2022/04/17 04:09:28;;;;;;;13.85;7.63;;;1.40;99.90;;;;;;5108560;28;20119;-49
2022/04/17 04:11:53;;;;;;;14.45;8.20;;;1.30;99.90;;;;;;5108446;28;20043;-48
2022/04/17 04:14:19;;;;;;;12.55;7.80;;;1.30;99.90;;;;;;5108689;28;20050;-49
2022/04/17 04:16:45;;;;;;;13.63;7.75;;;1.70;99.90;;;;;;5108432;28;20432;-47
2022/04/17 04:19:13;;;;;;;12.18;8.00;;;1.40;99.90;;;;;;5108291;28;20621;-47
2022/04/17 04:21:47;;;;;;;13.30;8.02;;;1.40;99.90;;;;;;5107285;28;20047;-46
2022/04/17 04:24:19;;;;;;;10.85;7.70;;;1.40;99.90;;;;;;5107578;28;20059;-47
2022/04/17 04:28:32;;;;;;;12.57;8.43;;;1.40;99.90;;;;;;5107681;28;20039;-46
2022/04/17 04:29:32;;;;;;;10.32;7.53;;;1.40;99.90;;;;;;5108374;28;20047;-46
2022/04/17 04:31:58;;;;;;;13.32;8.50;;;1.30;99.90;;;;;;5108340;28;20797;-48
2022/04/17 04:34:23;;;;;;;15.00;8.90;;;1.20;99.90;;;;;;5108473;28;20560;-47
2022/04/17 04:36:49;;;;;;;14.30;8.63;;;1.20;99.90;;;;;;5108103;28;20153;-50
2022/04/17 04:39:15;;;;;;;15.20;8.60;;;1.30;99.90;;;;;;5108275;28;20036;-49
2022/04/17 04:41:40;;;;;;;16.35;8.80;;;1.30;99.90;;;;;;5108054;28;20039;-48
2022/04/17 04:44:06;;;;;;;23.17;8.48;;;1.20;99.90;;;;;;5108016;28;20039;-47
2022/04/17 04:46:31;;;;;;;17.38;9.10;;;1.20;99.90;;;;;;5108090;28;20051;-50
2022/04/17 04:51:41;;;;;;;14.23;8.93;;;1.20;99.90;;;;;;5108430;28;20104;-47
2022/04/17 04:54:07;;;;;;;17.08;9.50;;;1.20;99.90;;;;;;5108312;28;20058;-47
2022/04/17 04:56:33;;;;;;;15.80;9.32;;;1.30;99.90;;;;;;5108270;28;20089;-47
2022/04/17 04:58:59;;;;;;;15.18;10.30;;;1.30;99.90;;;;;;5107331;28;20055;-50
2022/04/17 05:01:25;;;;;;;13.73;9.82;;;1.40;99.90;;;;;;5107678;28;20035;-49
2022/04/17 05:03:51;;;;;;;13.45;8.38;;;1.60;99.90;;;;;;5107475;28;20259;-47
2022/04/17 05:06:17;;;;;;;16.48;10.18;;;1.60;99.90;;;;;;5107709;28;20451;-46
2022/04/17 05:08:43;;;;;;;17.48;9.32;;;1.60;99.90;;;;;;5105611;28;20051;-47
2022/04/17 05:11:08;;;;;;;13.10;8.43;;;1.80;99.90;;;;;;5106883;28;20421;-47
2022/04/17 05:13:34;;;;;;;14.40;9.18;;;2.20;99.90;;;;;;5109457;28;20044;-46
2022/04/17 05:16:00;;;;;;;16.73;9.35;;;3.10;99.90;;;;;;5111280;28;20036;-48
2022/04/17 05:18:26;;;;;;;15.82;9.38;;;4.30;99.90;;;;;;5110866;28;20047;-45
2022/04/17 05:20:53;;;;;;;13.07;8.00;;;5.30;99.90;;;;;;5111366;28;20039;-50
2022/04/17 05:23:21;;;;;;;13.32;7.57;;;6.50;99.90;;;;;;5112018;28;20114;-50
2022/04/17 05:25:49;;;;;;;13.88;8.30;;;6.60;98.20;;;;;;5111704;28;20050;-48
2022/04/17 05:28:16;;;;;;;14.77;8.40;;;7.40;97.80;;;;;;5110988;28;20054;-48
2022/04/17 05:30:42;;;;;;;13.32;8.40;;;8.60;96.00;;;;;;5110871;28;20051;-46
2022/04/17 05:33:08;;;;;;;12.35;8.30;;;9.60;93.90;;;;;;5111295;28;20047;-49
2022/04/17 05:35:34;;;;;;;12.38;8.77;;;10.50;91.90;;;;;;5111954;27;20047;-48
2022/04/17 05:38:00;;;;;;;14.02;8.65;;;12.10;90.20;;;;;;5111333;28;20540;-50
2022/04/17 05:40:27;;;;;;;13.60;9.38;;;12.40;86.30;;;;;;5111834;28;20679;-48
2022/04/17 05:42:54;;;;;;;16.55;9.05;;;13.40;83.10;;;;;;5111561;28;20121;-47
2022/04/17 05:45:20;;;;;;;13.48;9.02;;;13.20;79.40;;;;;;5111602;28;20822;-48
2022/04/17 05:47:45;;;;;;;13.27;8.63;;;13.80;77.10;;;;;;5110899;28;20043;-49
2022/04/17 05:50:12;;;;;;;12.20;7.88;;;14.10;74.90;;;;;;5111066;28;20048;-49
2022/04/17 05:52:38;;;;;;;13.32;8.65;;;14.80;72.60;;;;;;5111799;28;20035;-48
2022/04/17 05:55:04;;;;;;;12.57;8.13;;;15.20;70.60;;;;;;5111409;28;20088;-50
2022/04/17 05:57:30;;;;;;;13.20;8.23;;;15.70;68.70;;;;;;5110639;28;20417;-49
2022/04/17 05:59:55;;;;;;;12.82;8.55;;;16.30;67.40;;;;;;5110909;28;20039;-49
2022/04/17 06:02:21;;;;;;;11.38;7.32;;;16.60;65.40;;;;;;5111710;28;20127;-48
2022/04/17 06:04:47;;;;;;;10.82;7.57;;;17.00;64.60;;;;;;5111529;28;20043;-51
2022/04/17 06:07:23;;;;;;;12.57;8.27;;;17.40;63.20;;;;;;5111126;28;20062;-50
2022/04/17 06:09:49;;;;;;;11.05;7.57;;;17.40;61.90;;;;;;5110057;28;20133;-47
2022/04/17 06:12:14;;;;;;;14.75;7.75;;;17.00;62.00;;;;;;5110380;28;20093;-47
2022/04/17 06:14:40;;;;;;;11.38;7.93;;;17.50;61.40;;;;;;5110519;28;20495;-50
2022/04/17 06:17:05;;;;;;;15.25;8.80;;;17.90;60.30;;;;;;5110440;28;20077;-49
2022/04/17 06:19:31;;;;;;;10.73;7.80;;;18.20;58.60;;;;;;5109174;28;20555;-47
2022/04/17 06:21:57;;;;;;;9.15;7.20;;;18.50;58.10;;;;;;5110076;28;20042;-51
2022/04/17 06:24:23;;;;;;;14.23;8.60;;;18.80;57.00;;;;;;5110364;28;20044;-48
2022/04/17 06:26:49;;;;;;;12.05;7.35;;;19.00;56.30;;;;;;5111075;28;20048;-48
2022/04/17 06:29:14;;;;;;;11.68;7.90;;;19.30;55.80;;;;;;5110905;28;20047;-50
2022/04/17 06:31:45;;;;;;;11.55;8.27;;;19.40;55.20;;;;;;5110599;28;20216;-49
2022/04/17 06:34:15;;;;;;;11.63;8.43;;;19.50;54.60;;;;;;5110677;28;20136;-47
2022/04/17 06:36:41;;;;;;;10.15;7.80;;;19.80;52.00;;;;;;5110584;28;20075;-47
2022/04/17 06:39:07;;;;;;;15.93;8.50;;;19.90;54.10;;;;;;5109631;28;20051;-48
2022/04/17 06:41:33;;;;;;;11.93;8.13;;;20.10;53.50;;;;;;5109563;28;20263;-49
2022/04/17 06:43:58;;;;;;;10.98;8.25;;;20.30;52.90;;;;;;5109317;28;20125;-47
2022/04/17 06:46:24;;;;;;;11.32;8.90;;;20.10;52.90;;;;;;5109526;28;20158;-51
2022/04/17 06:48:49;;;;;;;10.40;7.90;;;19.60;53.00;;;;;;5109851;28;20181;-49
2022/04/17 06:51:19;;;;;;;12.18;7.93;;;19.00;53.70;;;;;;5110196;28;20104;-48
2022/04/17 06:53:44;;;;;;;15.43;9.10;;;19.30;54.30;;;;;;5110293;28;20114;-48
2022/04/17 06:56:12;;;;;;;14.63;8.88;;;20.30;53.70;;;;;;5109864;28;20511;-49
2022/04/17 06:58:38;;;;;;;11.43;8.43;;;21.20;52.90;;;;;;5110081;28;20112;-52
2022/04/17 07:01:04;;;;;;;11.70;8.30;;;22.00;51.90;;;;;;5110094;28;20051;-48
2022/04/17 07:03:29;;;;;;;11.57;7.63;;;22.10;50.50;;;;;;5110205;28;20461;-50
2022/04/17 07:05:55;;;;;;;11.80;8.05;;;21.60;49.70;;;;;;5109417;28;20046;-49
2022/04/17 07:08:21;;;;;;;13.63;7.68;;;21.50;49.20;;;;;;5109816;28;20127;-50
2022/04/17 07:10:47;;;;;;;9.98;7.28;;;20.90;49.60;;;;;;5109058;28;20035;-52
2022/04/17 07:13:15;;;;;;;12.00;7.90;;;20.40;50.20;;;;;;5109386;28;20082;-49
2022/04/17 07:15:41;;;;;;;11.13;6.55;;;20.20;50.70;;;;;;5109625;28;20039;-50
2022/04/17 07:18:06;;;;;;;11.55;7.57;;;19.90;51.10;;;;;;5107377;28;20074;-47
2022/04/17 07:20:32;;;;;;;12.05;7.53;;;19.90;51.10;;;;;;5109579;28;20081;-50
2022/04/17 07:23:00;;;;;;;10.50;7.90;;;19.50;51.10;;;;;;5109099;28;20032;-51
2022/04/17 07:25:26;;;;;;;9.90;7.50;;;19.40;50.80;;;;;;5109108;28;20039;-51
2022/04/17 07:27:53;;;;;;;10.10;7.57;;;18.40;51.40;;;;;;5108477;28;20075;-48
2022/04/17 07:30:24;;;;;;;11.40;7.03;;;17.70;52.50;;;;;;5108123;28;20039;-47
2022/04/17 07:32:51;;;;;;;11.20;7.57;;;17.10;52.70;;;;;;5108695;28;20054;-49
2022/04/17 07:35:18;;;;;;;10.57;7.55;;;16.50;54.10;;;;;;5109006;28;20429;-50
2022/04/17 07:37:48;;;;;;;11.57;7.47;;;15.90;54.60;;;;;;5107942;28;20485;-50
2022/04/17 07:40:18;;;;;;;10.75;7.30;;;15.80;55.50;;;;;;5109128;28;20047;-47
2022/04/17 07:42:45;;;;;;;10.05;7.03;;;15.70;55.30;;;;;;5109251;28;20565;-51
2022/04/17 07:45:11;;;;;;;8.98;6.40;;;16.10;55.80;;;;;;5109253;28;20039;-49
2022/04/17 07:47:37;;;;;;;10.73;7.22;;;16.00;55.50;;;;;;5108649;28;20576;-50
2022/04/17 07:50:05;;;;;;;9.25;6.55;;;16.40;55.60;;;;;;5108909;28;20051;-49
2022/04/17 07:52:30;;;;;;;9.65;6.68;;;17.10;55.30;;;;;;5108861;28;20043;-50
2022/04/17 07:54:56;;;;;;;8.07;5.57;;;17.20;54.60;;;;;;5109147;28;20097;-51
2022/04/17 07:57:22;;;;;;;7.00;5.43;;;17.00;54.50;;;;;;5108410;28;20434;-50
2022/04/17 07:59:50;;;;;;;9.43;5.50;;;17.20;53.90;;;;;;5108723;28;20461;-50
2022/04/17 08:02:22;;;;;;;10.25;6.45;;;17.80;52.20;;;;;;5108802;28;20043;-49
2022/04/17 08:04:51;;;;;;;10.00;5.93;;;18.10;53.40;;;;;;5108750;28;20035;-50
2022/04/17 08:07:23;;;;;;;8.48;5.82;;;19.60;52.40;;;;;;5107291;28;20108;-51
2022/04/17 08:09:50;;;;;;;7.70;5.07;;;20.70;50.40;;;;;;5108680;28;20482;-49
2022/04/17 08:12:15;;;;;;;6.68;4.90;;;21.50;50.10;;;;;;5108987;28;20059;-51
2022/04/17 08:14:41;;;;;;;7.90;5.43;;;22.50;49.10;;;;;;5108410;28;20047;-54
2022/04/17 08:17:07;;;;;;;8.77;5.95;;;23.90;47.70;;;;;;5108217;28;20071;-54
2022/04/17 08:19:33;;;;;;;7.43;5.55;;;24.80;46.40;;;;;;5108639;28;20066;-54
2022/04/17 08:22:00;;;;;;;9.73;5.45;;;25.50;44.00;;;;;;5108381;28;20044;-54
2022/04/17 08:24:26;;;;;;;6.82;4.93;;;26.60;43.80;;;;;;5108265;28;20122;-54
2022/04/17 08:26:52;;;;;;;6.78;4.50;;;27.60;42.70;;;;;;5109141;28;20142;-53
2022/04/17 08:29:19;;;;;;;7.70;5.45;;;28.00;40.70;;;;;;5108429;28;20054;-54
2022/04/17 08:31:45;;;;;;;7.97;5.55;;;28.00;39.90;;;;;;5108776;28;20414;-54
2022/04/17 08:34:11;;;;;;;6.82;4.43;;;28.50;40.40;;;;;;5108170;28;20036;-54
2022/04/17 08:36:36;;;;;;;6.25;4.80;;;29.10;39.60;;;;;;5107669;28;20583;-54
2022/04/17 08:39:02;;;;;;;6.53;4.60;;;29.70;38.90;;;;;;5108001;28;20716;-55
2022/04/17 08:41:31;;;;;;;6.28;4.80;;;30.50;38.70;;;;;;5108244;28;20603;-53
2022/04/17 08:43:58;;;;;;;8.23;4.20;;;;;;;;;;5108397;28;20039;-51
2022/04/17 08:46:24;;;;;;;7.38;4.18;;;31.70;36.80;;;;;;5107811;28;20048;-51
2022/04/17 08:48:51;;;;;;;5.78;4.25;;;32.10;36.60;;;;;;5107734;28;20043;-51
2022/04/17 08:51:22;;;;;;;6.70;4.68;;;32.80;35.70;;;;;;5107766;28;20071;-53
2022/04/17 08:53:50;;;;;;;5.37;3.83;;;33.00;35.10;;;;;;5108200;28;20040;-51
2022/04/17 08:56:16;;;;;;;4.88;3.67;;;33.20;34.60;;;;;;5107288;28;20043;-53
2022/04/17 08:58:43;;;;;;;5.60;3.63;;;33.40;34.30;;;;;;5107943;28;20158;-52
2022/04/17 09:01:13;;;;;;;6.30;3.85;;;33.50;34.20;;;;;;5107847;28;20123;-53
2022/04/17 09:03:39;;;;;;;6.30;3.72;;;33.70;33.70;;;;;;5108110;28;20035;-52
2022/04/17 09:06:05;;;;;;;6.80;4.07;;;33.90;33.80;;;;;;5106092;28;20044;-50
2022/04/17 09:08:31;;;;;;;5.63;3.85;;;34.10;32.90;;;;;;5107528;28;20043;-53
2022/04/17 09:10:58;;;;;;;5.07;4.07;;;33.90;32.60;;;;;;5106631;28;20042;-52
2022/04/17 09:13:32;;;;;;;4.53;3.70;;;33.80;32.50;;;;;;5106550;28;20040;-55
2022/04/17 09:16:00;;;;;;;5.53;4.20;;;33.80;33.20;;;;;;5108109;28;20059;-55
2022/04/17 09:18:31;;;;;;;6.60;4.03;;;33.70;33.00;;;;;;5106790;28;20752;-55
2022/04/17 09:20:57;;;;;;;4.55;3.30;;;33.80;32.70;;;;;;5107968;28;20055;-55
2022/04/17 09:23:52;;;;;;;5.15;3.58;;;34.00;32.40;;;;;;5106948;28;20043;-55
2022/04/17 09:26:17;;;;;;;6.45;4.07;;;34.60;34.00;;;;;;5097823;28;20039;-55
2022/04/17 09:28:44;;;;;;;5.05;3.65;;;34.80;32.80;;;;;;5108157;28;20044;-55
2022/04/17 09:31:12;;;;;;;6.55;3.80;;;35.20;31.70;;;;;;5107159;28;20493;-55
2022/04/17 09:33:42;;;;;;;5.03;3.67;;;35.40;31.00;;;;;;5107506;28;20036;-56
2022/04/17 09:36:08;;;;;;;5.13;3.53;;;35.60;31.30;;;;;;5107383;28;20044;-55
2022/04/17 09:38:34;;;;;;;4.25;3.10;;;35.90;30.70;;;;;;5107273;28;20040;-55
2022/04/17 09:41:13;;;;;;;4.63;3.40;;;35.70;30.50;;;;;;5105957;28;20070;-55
2022/04/17 09:43:39;;;;;;;4.90;3.15;;;35.50;30.50;;;;;;5107326;28;20075;-54
2022/04/17 09:46:09;;;;;;;6.65;3.08;;;35.00;30.60;;;;;;5107481;28;20123;-54
2022/04/17 09:48:40;;;;;;;5.97;3.63;;;34.50;29.90;;;;;;5107301;28;20050;-54
2022/04/17 09:51:38;;;;;;;4.72;3.35;;;33.90;29.90;;;;;;5106122;28;20297;-54
2022/04/17 09:54:06;;;;;;;3.97;2.60;;;33.40;30.50;;;;;;5083678;28;20614;-54
2022/04/17 09:56:40;;;;;;;4.70;2.97;;;33.00;30.30;;;;;;5106181;28;20062;-55
2022/04/17 09:59:21;;;;;;;5.85;3.25;;;32.80;29.90;;;;;;5106094;28;20059;-55
2022/04/17 10:01:52;;;;;;;5.28;3.50;;;32.80;30.10;;;;;;5110287;28;20071;-56
2022/04/17 10:04:20;;;;;;;6.35;3.00;;;32.40;30.50;;;;;;5110048;28;20097;-55
2022/04/17 10:06:53;;;;;;;3.80;3.13;;;32.20;30.70;;;;;;5110762;28;20054;-56
2022/04/17 10:09:20;;;;;;;4.65;2.88;;;32.40;30.30;;;;;;5110760;28;20044;-56
2022/04/17 10:11:47;;;;;;;5.07;2.47;;;32.40;30.30;;;;;;5111036;28;20143;-55
2022/04/17 10:14:15;;;;;;;4.53;2.40;;;32.40;30.80;;;;;;5110864;28;20343;-56
2022/04/17 10:16:45;;;;;;;5.22;2.35;;;32.40;30.60;;;;;;5107780;28;20112;-56
2022/04/17 10:19:13;;;;;;;4.68;2.78;;;32.10;30.10;;;;;;5109676;28;20047;-55
2022/04/17 10:21:40;;;;;;;3.40;2.30;;;31.60;30.10;;;;;;5110605;28;20046;-56
2022/04/17 10:24:07;;;;;;;4.13;3.08;;;31.50;30.00;;;;;;5110609;28;20047;-55
2022/04/17 10:26:38;;;;;;;3.63;2.72;;;31.20;30.20;;;;;;5109290;28;20043;-55
2022/04/17 10:29:09;;;;;;;4.05;1.98;;;30.70;30.00;;;;;;5111139;28;20385;-54
2022/04/17 10:31:58;;;;;;;2.95;1.92;;;30.30;31.30;;;;;;5110649;28;20051;-55
2022/04/17 10:35:09;;;;;;;4.10;2.05;;;30.10;30.10;;;;;;5089313;28;20048;-54
2022/04/17 10:37:44;;;;;;;4.75;2.72;;;29.50;30.70;;;;;;5105660;28;20088;-54
2022/04/17 10:40:11;;;;;;;3.40;2.40;;;29.30;30.20;;;;;;5110566;28;20039;-53
2022/04/17 10:42:54;;;;;;;3.97;2.80;;;29.60;30.20;;;;;;5110108;28;20568;-53
2022/04/17 10:45:21;;;;;;;4.85;2.67;;;29.80;30.00;;;;;;5110487;28;20040;-41
2022/04/17 10:48:05;;;;;;;5.78;2.75;;;29.00;29.40;;;;;;5104611;28;20045;-45
2022/04/17 10:50:44;;;;;;;5.18;2.80;;;27.10;30.50;;;;;;5044981;28;20048;-47
2022/04/17 10:53:25;;;;;;;4.60;2.42;;;24.40;51.40;;;;;;5048654;28;20075;-45
2022/04/17 10:56:10;;;;;;;4.90;2.60;;;23.90;32.10;;;;;;5049477;28;20045;-46
2022/04/17 10:58:43;;;;;;;7.07;3.13;;;22.50;34.30;;;;;;5048535;28;20049;-42
2022/04/17 11:01:10;;;;;;;6.10;2.90;;;21.30;35.80;;;;;;5049362;28;20071;-43
2022/04/17 11:03:36;;;;;;;5.95;3.17;;;20.30;36.80;;;;;;5048681;28;20068;-44
2022/04/17 11:06:30;;;;;;;6.10;3.00;;;19.50;37.30;;;;;;5047843;28;20060;-48
2022/04/17 11:09:09;;;;;;;7.10;3.28;;;18.80;39.80;;;;;;5049040;28;20121;-49
2022/04/17 11:11:40;;;;;;;5.72;3.30;;;18.30;39.90;;;;;;5048691;28;20079;-44
2022/04/17 11:14:11;;;;;;;4.70;2.23;;;17.80;40.00;;;;;;5050383;28;20041;-46
2022/04/17 11:16:53;;;;;;;5.47;3.05;;;17.60;40.70;;;;;;5049177;28;20424;-47
2022/04/17 11:19:21;;;;;;;6.43;3.50;;;17.30;42.60;;;;;;5048730;28;20049;-46
2022/04/17 11:21:50;;;;;;;4.72;3.22;;;17.10;42.50;;;;;;5048812;28;20033;-52
2022/04/17 11:24:16;;;;;;;6.40;3.40;;;17.00;42.70;;;;;;5048977;28;20154;-47
2022/04/17 11:27:06;;;;;;;5.40;3.42;;;16.70;43.20;;;;;;5047779;28;20506;-45
2022/04/17 11:29:59;;;;;;;6.13;3.60;;;16.60;43.80;;;;;;5048429;28;20128;-45
2022/04/17 11:32:28;;;;;;;4.75;2.88;;;16.40;43.40;;;;;;5049848;28;20131;-45
2022/04/17 11:34:56;;;;;;;7.03;4.38;;;17.90;44.30;;;;;;5049585;28;20072;-45
2022/04/17 11:37:29;;;;;;;6.63;3.58;;;16.20;43.40;;;;;;5049062;28;20053;-44
2022/04/17 11:40:00;;;;;;;7.00;4.00;;;16.20;44.70;;;;;;5049460;28;20047;-46
2022/04/17 11:42:29;;;;;;;13.25;4.43;;;16.20;44.20;;;;;;5049129;28;20672;-45
2022/04/17 11:45:00;;;;;;;4.97;3.08;;;16.20;44.30;;;;;;5049094;28;20041;-44
2022/04/17 11:47:26;;;;;;;5.47;4.07;;;16.40;45.10;;;;;;5049594;28;20074;-44
2022/04/17 11:49:52;;;;;;;6.72;4.50;;;16.20;44.20;;;;;;5049094;28;20045;-45
2022/04/17 11:52:23;;;;;;;19.63;6.97;;;16.20;44.70;;;;;;5049230;28;20045;-45
2022/04/17 11:54:48;;;;;;;6.28;4.07;;;16.20;45.10;;;;;;5048731;28;20064;-45
2022/04/17 11:57:18;;;;;;;16.50;5.80;;;16.10;45.30;;;;;;5048649;28;20049;-44
2022/04/17 11:59:47;;;;;;;6.57;4.20;;;16.10;45.40;;;;;;5048433;28;20055;-43
2022/04/17 12:02:16;;;;;;;7.72;4.13;;;16.10;45.40;;;;;;5047720;28;20372;-44
2022/04/17 12:04:50;;;;;;;6.75;4.22;;;16.10;45.30;;;;;;5048663;28;20052;-45
2022/04/17 12:07:20;;;;;;;28.67;8.73;;;16.30;45.00;;;;;;5049011;28;20151;-45
2022/04/17 12:09:47;;;;;;;14.73;6.10;;;16.10;45.40;;;;;;5048499;28;20059;-44
2022/04/17 12:12:14;;;;;;;4.68;3.08;;;15.80;45.70;;;;;;5048292;28;20605;-44
2022/04/17 12:14:41;;;;;;;6.93;3.78;;;15.80;45.80;;;;;;5048660;28;20060;-45
2022/04/17 12:17:07;;;;;;;13.30;5.03;;;15.90;45.30;;;;;;5048674;28;20041;-44
2022/04/17 12:19:32;;;;;;;17.60;5.93;;;15.90;45.40;;;;;;5048735;28;20086;-45
2022/04/17 12:21:58;;;;;;;7.80;3.20;;;15.90;45.50;;;;;;5048257;28;20047;-44
2022/04/17 12:24:27;;;;;;;6.32;3.45;;;16.10;45.20;;;;;;5048141;28;20037;-43
2022/04/17 12:26:54;;;;;;;5.35;3.35;;;15.70;44.40;;;;;;5047872;28;20052;-45
2022/04/17 12:29:20;;;;;;;8.93;3.65;;;15.70;44.80;;;;;;5048094;28;20483;-45
2022/04/17 12:31:46;;;;;;;6.13;3.30;;;15.80;44.90;;;;;;5048386;28;20071;-44
2022/04/17 12:34:20;;;;;;;5.60;3.42;;;15.80;43.80;;;;;;5048451;28;20049;-45
2022/04/17 12:36:46;;;;;;;5.88;3.30;;;15.80;44.70;;;;;;5048220;28;20570;-45
2022/04/17 12:39:12;;;;;;;6.07;3.65;;;15.80;44.10;;;;;;5048658;28;20064;-46
2022/04/17 12:41:50;;;;;;;7.38;4.07;;;15.90;46.10;;;;;;5047006;28;20104;-43
2022/04/17 12:44:33;;;;;;;5.38;3.22;;;16.00;46.90;;;;;;5047288;28;20733;-44
2022/04/17 12:47:14;;;;;;;4.72;3.13;;;16.10;46.10;;;;;;5046806;28;20155;-45
2022/04/17 12:49:40;;;;;;;5.50;3.97;;;16.10;45.60;;;;;;5048131;28;20078;-44
2022/04/17 12:52:07;;;;;;;5.82;4.32;;;16.20;46.60;;;;;;5048067;28;20063;-45
2022/04/17 12:54:34;;;;;;;5.90;3.60;;;16.20;45.90;;;;;;5047811;28;20123;-43
2022/04/17 12:57:10;;;;;;;4.90;3.10;;;16.20;46.10;;;;;;5047660;28;20056;-45
2022/04/17 12:59:45;;;;;;;6.38;2.67;;;16.10;44.90;;;;;;5047757;28;20119;-44
2022/04/17 13:02:15;;;;;;;58.80;15.73;;;16.00;45.40;;;;;;5048057;28;20041;-44